createdAt,value
2023-03-18T00:00:03.121Z,973.92
2023-03-18T00:01:03.113Z,974.01
2023-03-18T00:02:03.205Z,973.92
2023-03-18T00:03:03.285Z,973.86
2023-03-18T00:04:03.273Z,973.92
2023-03-18T00:05:03.089Z,973.92
2023-03-18T00:06:03.203Z,973.98
2023-03-18T00:07:03.462Z,973.84
2023-03-18T00:08:03.352Z,974.01
2023-03-18T00:09:03.294Z,973.89
2023-03-18T00:10:03.285Z,973.98
2023-03-18T00:11:03.201Z,973.92
2023-03-18T00:12:03.322Z,973.98
2023-03-18T00:13:03.280Z,974.09
2023-03-18T00:14:03.382Z,974.09
2023-03-18T00:15:03.375Z,974.04
2023-03-18T00:16:03.378Z,974.09
2023-03-18T00:17:03.482Z,974.04
2023-03-18T00:18:03.490Z,973.95
2023-03-18T00:19:03.928Z,974.15
2023-03-18T00:20:02.974Z,973.98
2023-03-18T00:21:02.974Z,974.04
2023-03-18T00:22:03.932Z,973.98
2023-03-18T00:23:04.001Z,973.87
2023-03-18T00:24:03.910Z,974.07
2023-03-18T00:25:03.000Z,974.12
2023-03-18T00:26:03.131Z,973.98
2023-03-18T00:27:03.079Z,974.12
2023-03-18T00:28:02.931Z,973.95
2023-03-18T00:29:02.941Z,974.07
2023-03-18T00:30:03.086Z,973.98
2023-03-18T00:31:03.096Z,974.01
2023-03-18T00:32:02.950Z,974.01
2023-03-18T00:33:03.075Z,974.07
2023-03-18T00:34:02.975Z,974.07
2023-03-18T00:35:03.100Z,974.01
2023-03-18T00:36:03.097Z,974.13
2023-03-18T00:37:03.037Z,973.96
2023-03-18T00:38:02.983Z,974.16
2023-03-18T00:39:03.073Z,974.19
2023-03-18T00:40:03.089Z,974.10
2023-03-18T00:41:03.500Z,974.07
2023-03-18T00:42:03.487Z,974.05
2023-03-18T00:43:03.702Z,973.99
2023-03-18T00:44:03.646Z,974.05
2023-03-18T00:45:03.791Z,973.96
2023-03-18T00:46:03.736Z,974.10
2023-03-18T00:47:03.789Z,974.07
2023-03-18T00:48:03.846Z,974.05
2023-03-18T00:49:03.800Z,974.19
2023-03-18T00:50:03.884Z,974.07
2023-03-18T00:51:02.989Z,974.05
2023-03-18T00:52:03.008Z,974.13
2023-03-18T00:53:03.050Z,974.22
2023-03-18T00:54:03.149Z,974.27
2023-03-18T00:55:03.237Z,974.05
2023-03-18T00:56:03.224Z,974.11
2023-03-18T00:57:03.209Z,974.02
2023-03-18T00:58:03.302Z,974.14
2023-03-18T00:59:03.369Z,974.08
2023-03-18T01:00:03.343Z,974.16
2023-03-18T01:01:03.391Z,974.19
2023-03-18T01:02:03.638Z,974.14
2023-03-18T01:03:03.426Z,974.11
2023-03-18T01:04:03.440Z,974.08
2023-03-18T01:05:03.447Z,974.11
2023-03-18T01:06:03.384Z,974.11
2023-03-18T01:07:03.491Z,974.08
2023-03-18T01:08:03.606Z,974.08
2023-03-18T01:09:03.750Z,974.05
2023-03-18T01:10:03.904Z,974.05
2023-03-18T01:11:02.970Z,974.05
2023-03-18T01:12:02.988Z,974.05
2023-03-18T01:13:03.011Z,973.91
2023-03-18T01:14:03.087Z,974.17
2023-03-18T01:15:03.194Z,974.05
2023-03-18T01:16:03.388Z,974.08
2023-03-18T01:17:03.120Z,974.11
2023-03-18T01:18:03.225Z,974.14
2023-03-18T01:19:03.159Z,974.11
2023-03-18T01:20:03.204Z,974.03
2023-03-18T01:21:03.340Z,973.88
2023-03-18T01:22:03.344Z,974.06
2023-03-18T01:23:03.276Z,974.06
2023-03-18T01:24:03.299Z,974.14
2023-03-18T01:25:03.419Z,974.00
2023-03-18T01:26:03.554Z,973.91
2023-03-18T01:27:03.479Z,974.00
2023-03-18T01:28:03.462Z,974.06
2023-03-18T01:29:03.320Z,974.03
2023-03-18T01:30:03.298Z,973.97
2023-03-18T01:31:03.397Z,974.00
2023-03-18T01:32:03.704Z,974.00
2023-03-18T01:33:03.565Z,974.03
2023-03-18T01:34:03.501Z,974.09
2023-03-18T01:35:03.635Z,974.11
2023-03-18T01:36:03.689Z,974.12
2023-03-18T01:37:03.562Z,973.97
2023-03-18T01:38:03.459Z,974.23
2023-03-18T01:39:03.588Z,974.23
2023-03-18T01:40:03.536Z,974.34
2023-03-18T01:41:03.556Z,974.23
2023-03-18T01:42:03.457Z,974.23
2023-03-18T01:43:03.461Z,974.23
2023-03-18T01:44:03.601Z,974.15
2023-03-18T01:45:03.714Z,974.40
2023-03-18T01:46:03.762Z,974.32
2023-03-18T01:47:03.761Z,974.38
2023-03-18T01:48:03.765Z,974.26
2023-03-18T01:49:03.789Z,974.18
2023-03-18T01:50:03.083Z,974.29
2023-03-18T01:51:03.044Z,974.38
2023-03-18T01:52:03.046Z,974.18
2023-03-18T01:53:03.101Z,974.29
2023-03-18T01:54:03.090Z,974.12
2023-03-18T01:55:03.142Z,974.32
2023-03-18T01:56:03.096Z,974.20
2023-03-18T01:57:03.044Z,974.23
2023-03-18T01:58:03.033Z,974.15
2023-03-18T01:59:03.001Z,974.12
2023-03-18T02:00:03.053Z,974.06
2023-03-18T02:01:03.278Z,974.21
2023-03-18T02:02:03.197Z,974.38
2023-03-18T02:03:03.334Z,974.23
2023-03-18T02:04:03.388Z,974.23
2023-03-18T02:05:03.350Z,974.18
2023-03-18T02:06:03.278Z,974.24
2023-03-18T02:07:03.289Z,974.35
2023-03-18T02:08:03.281Z,974.35
2023-03-18T02:09:03.242Z,974.27
2023-03-18T02:10:03.349Z,974.15
2023-03-18T02:11:03.266Z,974.35
2023-03-18T02:12:03.110Z,974.32
2023-03-18T02:13:03.196Z,974.35
2023-03-18T02:14:03.292Z,974.44
2023-03-18T02:15:03.286Z,974.35
2023-03-18T02:16:03.271Z,974.35
2023-03-18T02:17:03.320Z,974.38
2023-03-18T02:18:03.076Z,974.38
2023-03-18T02:19:03.183Z,974.33
2023-03-18T02:20:03.287Z,974.33
2023-03-18T02:21:03.429Z,974.30
2023-03-18T02:22:03.357Z,974.30
2023-03-18T02:23:03.321Z,974.33
2023-03-18T02:24:03.333Z,974.27
2023-03-18T02:25:03.251Z,974.21
2023-03-18T02:26:03.158Z,974.44
2023-03-18T02:27:03.200Z,974.27
2023-03-18T02:28:03.232Z,974.36
2023-03-18T02:29:03.137Z,974.33
2023-03-18T02:30:03.107Z,974.41
2023-03-18T02:31:03.201Z,974.22
2023-03-18T02:32:03.073Z,974.33
2023-03-18T02:33:03.265Z,974.19
2023-03-18T02:34:03.170Z,974.24
2023-03-18T02:35:03.226Z,974.30
2023-03-18T02:36:03.204Z,974.24
2023-03-18T02:37:03.219Z,974.27
2023-03-18T02:38:03.102Z,974.24
2023-03-18T02:39:03.106Z,974.30
2023-03-18T02:40:03.176Z,974.36
2023-03-18T02:41:03.134Z,974.45
2023-03-18T02:42:03.061Z,974.25
2023-03-18T02:43:03.067Z,974.36
2023-03-18T02:44:03.086Z,974.22
2023-03-18T02:45:02.963Z,974.33
2023-03-18T02:46:03.152Z,974.30
2023-03-18T02:47:03.129Z,974.14
2023-03-18T02:48:03.053Z,974.08
2023-03-18T02:49:03.116Z,974.28
2023-03-18T02:50:03.090Z,974.30
2023-03-18T02:51:03.567Z,974.22
2023-03-18T02:52:03.466Z,974.25
2023-03-18T02:53:03.668Z,974.53
2023-03-18T02:54:03.706Z,974.30
2023-03-18T02:55:03.313Z,974.36
2023-03-18T02:56:03.257Z,974.27
2023-03-18T02:57:03.204Z,974.33
2023-03-18T02:58:03.222Z,974.38
2023-03-18T02:59:03.114Z,974.38
2023-03-18T03:00:03.062Z,974.41
2023-03-18T03:01:03.134Z,974.50
2023-03-18T03:02:03.157Z,974.41
2023-03-18T03:03:03.315Z,974.38
2023-03-18T03:04:03.219Z,974.44
2023-03-18T03:05:03.130Z,974.38
2023-03-18T03:06:03.233Z,974.50
2023-03-18T03:07:03.250Z,974.41
2023-03-18T03:08:03.415Z,974.58
2023-03-18T03:09:03.425Z,974.41
2023-03-18T03:10:03.427Z,974.53
2023-03-18T03:11:03.282Z,974.58
2023-03-18T03:12:03.318Z,974.53
2023-03-18T03:13:03.218Z,974.47
2023-03-18T03:14:03.218Z,974.47
2023-03-18T03:15:03.204Z,974.50
2023-03-18T03:16:03.582Z,974.47
2023-03-18T03:17:03.493Z,974.47
2023-03-18T03:18:03.525Z,974.53
2023-03-18T03:19:03.637Z,974.53
2023-03-18T03:20:03.533Z,974.73
2023-03-18T03:21:03.617Z,974.73
2023-03-18T03:22:03.579Z,974.70
2023-03-18T03:23:03.671Z,974.56
2023-03-18T03:24:03.829Z,974.62
2023-03-18T03:25:03.815Z,974.73
2023-03-18T03:26:03.849Z,974.70
2023-03-18T03:27:02.983Z,974.68
2023-03-18T03:28:02.945Z,974.82
2023-03-18T03:29:02.932Z,974.51
2023-03-18T03:30:02.950Z,974.79
2023-03-18T03:31:03.179Z,974.73
2023-03-18T03:32:04.006Z,974.65
2023-03-18T03:33:03.140Z,974.82
2023-03-18T03:34:03.915Z,974.85
2023-03-18T03:35:03.028Z,974.82
2023-03-18T03:36:03.056Z,974.73
2023-03-18T03:37:03.120Z,974.71
2023-03-18T03:38:03.046Z,974.65
2023-03-18T03:39:03.081Z,974.59
2023-03-18T03:40:03.273Z,974.82
2023-03-18T03:41:03.272Z,974.76
2023-03-18T03:42:03.158Z,974.74
2023-03-18T03:43:03.181Z,974.82
2023-03-18T03:44:03.192Z,974.71
2023-03-18T03:45:03.199Z,974.54
2023-03-18T03:46:03.237Z,974.77
2023-03-18T03:47:03.119Z,974.68
2023-03-18T03:48:03.166Z,974.60
2023-03-18T03:49:03.213Z,974.74
2023-03-18T03:50:03.121Z,974.80
2023-03-18T03:51:03.177Z,974.66
2023-03-18T03:52:03.091Z,974.54
2023-03-18T03:53:03.182Z,974.77
2023-03-18T03:54:03.089Z,974.68
2023-03-18T03:55:03.037Z,974.74
2023-03-18T03:56:03.064Z,974.77
2023-03-18T03:57:03.017Z,974.63
2023-03-18T03:58:02.967Z,974.83
2023-03-18T03:59:03.067Z,974.69
2023-03-18T04:00:02.936Z,974.74
2023-03-18T04:01:02.900Z,974.72
2023-03-18T04:02:03.027Z,974.72
2023-03-18T04:03:03.077Z,974.74
2023-03-18T04:04:03.282Z,974.66
2023-03-18T04:05:03.888Z,974.69
2023-03-18T04:06:03.856Z,974.77
2023-03-18T04:07:03.931Z,974.72
2023-03-18T04:08:03.071Z,974.77
2023-03-18T04:09:02.992Z,974.77
2023-03-18T04:10:03.006Z,974.83
2023-03-18T04:11:03.105Z,974.60
2023-03-18T04:12:03.209Z,974.63
2023-03-18T04:13:02.948Z,974.74
2023-03-18T04:14:03.964Z,974.77
2023-03-18T04:15:02.985Z,974.86
2023-03-18T04:16:03.150Z,974.80
2023-03-18T04:17:03.034Z,974.69
2023-03-18T04:18:02.950Z,974.72
2023-03-18T04:19:03.940Z,974.72
2023-03-18T04:20:03.912Z,974.72
2023-03-18T04:21:02.968Z,974.69
2023-03-18T04:22:03.003Z,974.83
2023-03-18T04:23:03.516Z,974.83
2023-03-18T04:24:03.597Z,974.72
2023-03-18T04:25:03.680Z,974.72
2023-03-18T04:26:03.561Z,974.78
2023-03-18T04:27:03.626Z,974.80
2023-03-18T04:28:03.632Z,974.69
2023-03-18T04:29:03.703Z,974.69
2023-03-18T04:30:03.825Z,974.74
2023-03-18T04:31:03.888Z,974.63
2023-03-18T04:32:03.823Z,974.74
2023-03-18T04:33:03.247Z,974.63
2023-03-18T04:34:02.969Z,974.72
2023-03-18T04:35:03.212Z,974.77
2023-03-18T04:36:03.285Z,974.80
2023-03-18T04:37:03.112Z,974.63
2023-03-18T04:38:03.120Z,974.63
2023-03-18T04:39:03.153Z,974.77
2023-03-18T04:40:03.204Z,974.83
2023-03-18T04:41:03.169Z,974.80
2023-03-18T04:42:03.171Z,974.83
2023-03-18T04:43:03.123Z,974.77
2023-03-18T04:44:03.190Z,974.68
2023-03-18T04:45:03.193Z,974.77
2023-03-18T04:46:03.174Z,974.71
2023-03-18T04:47:03.139Z,974.77
2023-03-18T04:48:03.224Z,974.82
2023-03-18T04:49:03.221Z,974.62
2023-03-18T04:50:03.381Z,974.65
2023-03-18T04:51:03.358Z,974.68
2023-03-18T04:52:03.388Z,974.76
2023-03-18T04:53:03.538Z,974.79
2023-03-18T04:54:03.593Z,974.62
2023-03-18T04:55:03.600Z,974.59
2023-03-18T04:56:03.436Z,974.61
2023-03-18T04:57:03.500Z,974.58
2023-03-18T04:58:03.432Z,974.58
2023-03-18T04:59:03.588Z,974.50
2023-03-18T05:00:03.603Z,974.61
2023-03-18T05:01:03.595Z,974.58
2023-03-18T05:02:03.625Z,974.58
2023-03-18T05:03:03.756Z,974.58
2023-03-18T05:04:03.821Z,974.66
2023-03-18T05:05:03.558Z,974.58
2023-03-18T05:06:03.631Z,974.66
2023-03-18T05:07:03.796Z,974.69
2023-03-18T05:08:03.834Z,974.60
2023-03-18T05:09:03.123Z,974.58
2023-03-18T05:10:02.996Z,974.58
2023-03-18T05:11:03.110Z,974.63
2023-03-18T05:12:03.148Z,974.66
2023-03-18T05:13:03.222Z,974.58
2023-03-18T05:14:03.160Z,974.80
2023-03-18T05:15:03.197Z,974.58
2023-03-18T05:16:03.211Z,974.72
2023-03-18T05:17:03.289Z,974.66
2023-03-18T05:18:03.180Z,974.58
2023-03-18T05:19:03.220Z,974.64
2023-03-18T05:20:03.217Z,974.61
2023-03-18T05:21:03.282Z,974.58
2023-03-18T05:22:03.234Z,974.61
2023-03-18T05:23:03.223Z,974.61
2023-03-18T05:24:03.139Z,974.41
2023-03-18T05:25:03.343Z,974.49
2023-03-18T05:26:03.250Z,974.41
2023-03-18T05:27:03.420Z,974.55
2023-03-18T05:28:03.179Z,974.58
2023-03-18T05:29:03.212Z,974.47
2023-03-18T05:30:03.322Z,974.58
2023-03-18T05:31:03.354Z,974.55
2023-03-18T05:32:03.442Z,974.53
2023-03-18T05:33:03.350Z,974.53
2023-03-18T05:34:03.326Z,974.58
2023-03-18T05:35:03.323Z,974.56
2023-03-18T05:36:03.558Z,974.59
2023-03-18T05:37:03.634Z,974.59
2023-03-18T05:38:03.599Z,974.64
2023-03-18T05:39:03.563Z,974.62
2023-03-18T05:40:03.701Z,974.56
2023-03-18T05:41:03.821Z,974.62
2023-03-18T05:42:03.759Z,974.45
2023-03-18T05:43:03.733Z,974.56
2023-03-18T05:44:03.665Z,974.56
2023-03-18T05:45:03.785Z,974.56
2023-03-18T05:46:03.790Z,974.53
2023-03-18T05:47:03.809Z,974.48
2023-03-18T05:48:02.947Z,974.53
2023-03-18T05:49:02.969Z,974.56
2023-03-18T05:50:02.988Z,974.59
2023-03-18T05:51:03.966Z,974.62
2023-03-18T05:52:03.866Z,974.56
2023-03-18T05:53:03.816Z,974.62
2023-03-18T05:54:02.937Z,974.51
2023-03-18T05:55:02.954Z,974.54
2023-03-18T05:56:02.933Z,974.54
2023-03-18T05:57:03.009Z,974.62
2023-03-18T05:58:02.980Z,974.65
2023-03-18T05:59:03.085Z,974.65
2023-03-18T06:00:03.091Z,974.68
2023-03-18T06:01:03.353Z,974.59
2023-03-18T06:02:03.698Z,974.56
2023-03-18T06:03:03.518Z,974.62
2023-03-18T06:04:03.290Z,974.65
2023-03-18T06:05:03.271Z,974.62
2023-03-18T06:06:03.164Z,974.59
2023-03-18T06:07:03.197Z,974.48
2023-03-18T06:08:03.507Z,974.59
2023-03-18T06:09:03.214Z,974.48
2023-03-18T06:10:08.508Z,974.59
2023-03-18T06:11:03.371Z,974.51
2023-03-18T06:12:03.250Z,974.62
2023-03-18T06:13:03.303Z,974.59
2023-03-18T06:14:03.997Z,974.62
2023-03-18T06:15:03.312Z,974.65
2023-03-18T06:16:03.824Z,974.65
2023-03-18T06:17:03.464Z,974.62
2023-03-18T06:18:03.477Z,974.59
2023-03-18T06:19:03.778Z,974.73
2023-03-18T06:20:03.644Z,974.59
2023-03-18T06:21:03.326Z,974.70
2023-03-18T06:22:03.494Z,974.62
2023-03-18T06:23:03.376Z,974.67
2023-03-18T06:24:03.428Z,974.70
2023-03-18T06:25:03.337Z,974.65
2023-03-18T06:26:03.212Z,974.62
2023-03-18T06:27:03.201Z,974.59
2023-03-18T06:28:03.348Z,974.59
2023-03-18T06:29:03.537Z,974.59
2023-03-18T06:30:03.411Z,974.50
2023-03-18T06:31:03.540Z,974.64
2023-03-18T06:32:03.666Z,974.64
2023-03-18T06:33:03.717Z,974.58
2023-03-18T06:34:03.746Z,974.56
2023-03-18T06:35:03.611Z,974.53
2023-03-18T06:36:03.899Z,974.67
2023-03-18T06:37:03.801Z,974.64
2023-03-18T06:38:03.746Z,974.58
2023-03-18T06:39:03.743Z,974.64
2023-03-18T06:40:03.968Z,974.64
2023-03-18T06:41:03.933Z,974.72
2023-03-18T06:42:02.981Z,974.60
2023-03-18T06:43:03.032Z,974.49
2023-03-18T06:44:03.066Z,974.46
2023-03-18T06:45:03.236Z,974.60
2023-03-18T06:46:03.244Z,974.54
2023-03-18T06:47:03.297Z,974.56
2023-03-18T06:48:03.231Z,974.56
2023-03-18T06:49:03.344Z,974.58
2023-03-18T06:50:03.249Z,974.53
2023-03-18T06:51:03.190Z,974.67
2023-03-18T06:52:03.142Z,974.63
2023-03-18T06:53:03.296Z,974.69
2023-03-18T06:54:04.590Z,974.72
2023-03-18T06:55:03.733Z,974.66
2023-03-18T06:56:03.703Z,974.63
2023-03-18T06:57:03.908Z,974.74
2023-03-18T06:58:02.956Z,974.77
2023-03-18T06:59:03.089Z,974.77
2023-03-18T07:00:03.252Z,974.82
2023-03-18T07:01:03.361Z,974.91
2023-03-18T07:02:03.201Z,974.95
2023-03-18T07:03:03.318Z,974.85
2023-03-18T07:04:03.413Z,974.85
2023-03-18T07:05:03.153Z,974.79
2023-03-18T07:06:03.173Z,974.79
2023-03-18T07:07:03.123Z,974.82
2023-03-18T07:08:03.156Z,974.73
2023-03-18T07:09:03.060Z,974.79
2023-03-18T07:10:02.944Z,974.84
2023-03-18T07:11:03.180Z,974.84
2023-03-18T07:12:03.177Z,974.78
2023-03-18T07:13:03.038Z,974.76
2023-03-18T07:14:03.051Z,974.93
2023-03-18T07:15:03.026Z,974.97
2023-03-18T07:16:03.098Z,974.78
2023-03-18T07:17:03.071Z,974.89
2023-03-18T07:18:03.103Z,974.95
2023-03-18T07:19:03.019Z,975.02
2023-03-18T07:20:02.996Z,974.86
2023-03-18T07:21:03.214Z,974.96
2023-03-18T07:22:03.009Z,974.96
2023-03-18T07:23:03.023Z,975.02
2023-03-18T07:24:03.067Z,974.91
2023-03-18T07:25:03.001Z,974.99
2023-03-18T07:26:03.163Z,975.04
2023-03-18T07:27:03.097Z,975.10
2023-03-18T07:28:03.009Z,974.94
2023-03-18T07:29:03.597Z,975.01
2023-03-18T07:30:03.858Z,975.12
2023-03-18T07:31:04.039Z,974.98
2023-03-18T07:32:03.785Z,975.15
2023-03-18T07:33:03.780Z,975.09
2023-03-18T07:34:03.844Z,975.21
2023-03-18T07:35:03.805Z,975.18
2023-03-18T07:36:03.822Z,975.21
2023-03-18T07:37:03.717Z,975.20
2023-03-18T07:38:03.750Z,975.15
2023-03-18T07:39:03.777Z,975.00
2023-03-18T07:40:03.786Z,975.20
2023-03-18T07:41:03.831Z,975.17
2023-03-18T07:42:03.853Z,975.14
2023-03-18T07:43:03.809Z,975.20
2023-03-18T07:44:03.786Z,975.20
2023-03-18T07:45:03.889Z,975.23
2023-03-18T07:46:03.042Z,975.17
2023-03-18T07:47:03.170Z,975.22
2023-03-18T07:48:03.231Z,975.22
2023-03-18T07:49:03.333Z,974.96
2023-03-18T07:50:03.163Z,975.25
2023-03-18T07:51:03.105Z,975.19
2023-03-18T07:52:03.104Z,975.28
2023-03-18T07:53:02.981Z,975.13
2023-03-18T07:54:03.682Z,975.16
2023-03-18T07:55:03.821Z,975.13
2023-03-18T07:56:03.980Z,975.19
2023-03-18T07:57:03.991Z,975.19
2023-03-18T07:58:03.948Z,975.27
2023-03-18T07:59:02.947Z,975.40
2023-03-18T08:00:02.914Z,975.33
2023-03-18T08:01:03.941Z,975.27
2023-03-18T08:02:03.936Z,975.34
2023-03-18T08:03:03.956Z,975.34
2023-03-18T08:04:04.025Z,975.32
2023-03-18T08:05:03.131Z,975.32
2023-03-18T08:06:03.056Z,975.23
2023-03-18T08:07:03.015Z,975.32
2023-03-18T08:08:02.982Z,975.29
2023-03-18T08:09:03.013Z,975.39
2023-03-18T08:10:02.997Z,975.23
2023-03-18T08:11:03.058Z,975.26
2023-03-18T08:12:03.008Z,975.28
2023-03-18T08:13:03.455Z,975.44
2023-03-18T08:14:03.507Z,975.47
2023-03-18T08:15:03.502Z,975.33
2023-03-18T08:16:03.597Z,975.38
2023-03-18T08:17:03.685Z,975.35
2023-03-18T08:18:03.769Z,975.35
2023-03-18T08:19:03.740Z,975.44
2023-03-18T08:20:03.695Z,975.35
2023-03-18T08:21:03.772Z,975.43
2023-03-18T08:22:03.672Z,975.46
2023-03-18T08:23:03.829Z,975.43
2023-03-18T08:24:03.899Z,975.43
2023-03-18T08:25:03.878Z,975.43
2023-03-18T08:26:03.847Z,975.43
2023-03-18T08:27:03.830Z,975.48
2023-03-18T08:28:03.836Z,975.45
2023-03-18T08:29:02.951Z,975.48
2023-03-18T08:30:04.514Z,975.53
2023-03-18T08:31:03.869Z,975.48
2023-03-18T08:32:02.975Z,975.45
2023-03-18T08:33:03.972Z,975.56
2023-03-18T08:34:03.851Z,975.56
2023-03-18T08:35:03.861Z,975.47
2023-03-18T08:36:04.052Z,975.55
2023-03-18T08:37:02.974Z,975.58
2023-03-18T08:38:02.927Z,975.49
2023-03-18T08:39:03.022Z,975.52
2023-03-18T08:40:03.000Z,975.46
2023-03-18T08:41:02.983Z,975.54
2023-03-18T08:42:02.924Z,975.65
2023-03-18T08:43:03.077Z,975.48
2023-03-18T08:44:03.097Z,975.59
2023-03-18T08:45:03.097Z,975.59
2023-03-18T08:46:03.151Z,975.56
2023-03-18T08:47:02.984Z,975.65
2023-03-18T08:48:03.025Z,975.61
2023-03-18T08:49:02.980Z,975.58
2023-03-18T08:50:03.062Z,975.44
2023-03-18T08:51:03.037Z,975.58
2023-03-18T08:52:03.085Z,975.49
2023-03-18T08:53:03.029Z,975.54
2023-03-18T08:54:03.597Z,975.74
2023-03-18T08:55:03.642Z,975.57
2023-03-18T08:56:03.637Z,975.45
2023-03-18T08:57:03.631Z,975.53
2023-03-18T08:58:03.631Z,975.53
2023-03-18T08:59:03.692Z,975.64
2023-03-18T09:00:03.716Z,975.66
2023-03-18T09:01:03.837Z,975.58
2023-03-18T09:02:03.733Z,975.51
2023-03-18T09:03:03.107Z,975.34
2023-03-18T09:04:03.024Z,975.51
2023-03-18T09:05:02.955Z,975.42
2023-03-18T09:06:03.047Z,975.56
2023-03-18T09:07:03.132Z,975.50
2023-03-18T09:08:03.089Z,975.52
2023-03-18T09:09:03.093Z,975.41
2023-03-18T09:10:03.066Z,975.49
2023-03-18T09:11:03.082Z,975.60
2023-03-18T09:12:03.095Z,975.60
2023-03-18T09:13:02.954Z,975.48
2023-03-18T09:14:03.025Z,975.48
2023-03-18T09:15:02.920Z,975.48
2023-03-18T09:16:02.961Z,975.65
2023-03-18T09:17:03.187Z,975.50
2023-03-18T09:18:12.715Z,975.58
2023-03-18T09:19:02.973Z,975.58
2023-03-18T09:20:03.925Z,975.63
2023-03-18T09:21:03.897Z,975.72
2023-03-18T09:22:02.994Z,975.69
2023-03-18T09:23:03.103Z,975.57
2023-03-18T09:24:03.052Z,975.45
2023-03-18T09:25:03.173Z,975.42
2023-03-18T09:26:03.233Z,975.62
2023-03-18T09:27:03.211Z,975.67
2023-03-18T09:28:03.181Z,975.67
2023-03-18T09:29:03.151Z,975.61
2023-03-18T09:30:03.187Z,975.66
2023-03-18T09:31:03.293Z,975.66
2023-03-18T09:32:03.131Z,975.66
2023-03-18T09:33:03.437Z,975.51
2023-03-18T09:34:03.159Z,975.57
2023-03-18T09:35:03.075Z,975.76
2023-03-18T09:36:03.221Z,975.65
2023-03-18T09:37:03.199Z,975.59
2023-03-18T09:38:03.087Z,975.61
2023-03-18T09:39:03.129Z,975.67
2023-03-18T09:40:03.203Z,975.60
2023-03-18T09:41:03.218Z,975.60
2023-03-18T09:42:03.240Z,975.74
2023-03-18T09:43:03.157Z,975.74
2023-03-18T09:44:03.122Z,975.71
2023-03-18T09:45:03.182Z,975.68
2023-03-18T09:46:03.511Z,975.68
2023-03-18T09:47:03.400Z,975.65
2023-03-18T09:48:03.076Z,975.70
2023-03-18T09:49:03.045Z,975.76
2023-03-18T09:50:03.068Z,975.87
2023-03-18T09:51:03.060Z,975.76
2023-03-18T09:52:03.051Z,975.81
2023-03-18T09:53:02.940Z,975.75
2023-03-18T09:54:03.013Z,975.81
2023-03-18T09:55:03.043Z,975.75
2023-03-18T09:56:03.048Z,975.69
2023-03-18T09:57:03.118Z,975.69
2023-03-18T09:58:03.186Z,975.77
2023-03-18T09:59:03.232Z,975.77
2023-03-18T10:00:03.120Z,975.85
2023-03-18T10:01:03.402Z,975.85
2023-03-18T10:02:03.221Z,975.76
2023-03-18T10:03:06.757Z,975.88
2023-03-18T10:04:03.328Z,975.87
2023-03-18T10:05:03.779Z,975.67
2023-03-18T10:06:03.678Z,975.78
2023-03-18T10:07:03.744Z,975.93
2023-03-18T10:08:03.842Z,975.92
2023-03-18T10:09:03.030Z,975.92
2023-03-18T10:10:02.984Z,975.86
2023-03-18T10:11:03.984Z,976.06
2023-03-18T10:12:03.013Z,975.89
2023-03-18T10:13:03.126Z,975.95
2023-03-18T10:14:03.106Z,975.98
2023-03-18T10:15:03.261Z,976.03
2023-03-18T10:16:03.412Z,976.06
2023-03-18T10:17:03.254Z,976.09
2023-03-18T10:18:03.538Z,976.09
2023-03-18T10:19:03.586Z,976.01
2023-03-18T10:20:03.520Z,976.01
2023-03-18T10:21:03.479Z,976.09
2023-03-18T10:22:03.448Z,975.98
2023-03-18T10:23:03.457Z,976.12
2023-03-18T10:24:03.860Z,976.00
2023-03-18T10:25:03.878Z,976.06
2023-03-18T10:26:03.906Z,976.06
2023-03-18T10:27:03.016Z,976.05
2023-03-18T10:28:03.153Z,975.99
2023-03-18T10:29:03.000Z,976.11
2023-03-18T10:30:03.143Z,976.10
2023-03-18T10:31:03.287Z,976.16
2023-03-18T10:32:03.337Z,976.16
2023-03-18T10:33:03.299Z,976.15
2023-03-18T10:34:03.179Z,976.09
2023-03-18T10:35:03.108Z,976.09
2023-03-18T10:36:03.217Z,976.05
2023-03-18T10:37:03.191Z,976.14
2023-03-18T10:38:03.261Z,976.16
2023-03-18T10:39:03.324Z,976.07
2023-03-18T10:40:03.302Z,976.10
2023-03-18T10:41:03.378Z,976.21
2023-03-18T10:42:03.378Z,976.12
2023-03-18T10:43:03.330Z,976.09
2023-03-18T10:44:03.357Z,976.12
2023-03-18T10:45:03.302Z,976.08
2023-03-18T10:46:03.457Z,976.17
2023-03-18T10:47:03.679Z,976.25
2023-03-18T10:48:06.360Z,976.22
2023-03-18T10:49:03.304Z,976.22
2023-03-18T10:50:03.278Z,976.16
2023-03-18T10:51:03.397Z,976.15
2023-03-18T10:52:03.324Z,976.09
2023-03-18T10:53:03.217Z,976.06
2023-03-18T10:54:03.262Z,976.23
2023-03-18T10:55:03.388Z,976.23
2023-03-18T10:56:03.352Z,976.20
2023-03-18T10:57:03.356Z,976.26
2023-03-18T10:58:03.457Z,976.21
2023-03-18T10:59:03.459Z,976.15
2023-03-18T11:00:03.599Z,976.15
2023-03-18T11:01:03.531Z,976.35
2023-03-18T11:02:03.651Z,976.30
2023-03-18T11:03:03.789Z,976.07
2023-03-18T11:04:03.782Z,976.22
2023-03-18T11:05:03.809Z,976.13
2023-03-18T11:06:04.872Z,976.16
2023-03-18T11:07:03.871Z,976.39
2023-03-18T11:08:03.834Z,976.31
2023-03-18T11:09:03.766Z,976.22
2023-03-18T11:10:03.723Z,976.28
2023-03-18T11:11:03.689Z,976.25
2023-03-18T11:12:03.721Z,976.05
2023-03-18T11:13:03.717Z,976.14
2023-03-18T11:14:03.815Z,976.19
2023-03-18T11:15:03.831Z,976.22
2023-03-18T11:16:03.904Z,976.22
2023-03-18T11:17:03.835Z,976.19
2023-03-18T11:18:03.901Z,976.25
2023-03-18T11:19:03.919Z,976.19
2023-03-18T11:20:03.761Z,976.36
2023-03-18T11:21:03.960Z,976.30
2023-03-18T11:22:03.756Z,976.22
2023-03-18T11:23:03.773Z,976.16
2023-03-18T11:24:03.020Z,976.22
2023-03-18T11:25:03.962Z,976.28
2023-03-18T11:26:03.777Z,976.16
2023-03-18T11:27:02.994Z,976.13
2023-03-18T11:28:03.907Z,976.19
2023-03-18T11:29:03.929Z,976.25
2023-03-18T11:30:02.998Z,976.13
2023-03-18T11:31:03.983Z,976.13
2023-03-18T11:32:03.957Z,975.99
2023-03-18T11:33:04.086Z,976.01
2023-03-18T11:34:03.975Z,976.04
2023-03-18T11:35:03.910Z,976.07
2023-03-18T11:36:03.922Z,975.95
2023-03-18T11:37:03.877Z,976.01
2023-03-18T11:38:03.844Z,975.98
2023-03-18T11:39:03.841Z,975.98
2023-03-18T11:40:03.890Z,976.01
2023-03-18T11:41:03.867Z,976.01
2023-03-18T11:42:03.017Z,976.12
2023-03-18T11:43:02.989Z,975.98
2023-03-18T11:44:03.925Z,976.01
2023-03-18T11:45:03.869Z,975.92
2023-03-18T11:46:03.845Z,975.89
2023-03-18T11:47:03.990Z,976.04
2023-03-18T11:48:03.848Z,976.01
2023-03-18T11:49:03.860Z,975.98
2023-03-18T11:50:03.924Z,975.92
2023-03-18T11:51:03.878Z,975.89
2023-03-18T11:52:03.862Z,975.83
2023-03-18T11:53:03.864Z,976.01
2023-03-18T11:54:02.973Z,975.98
2023-03-18T11:55:03.883Z,975.92
2023-03-18T11:56:03.074Z,975.92
2023-03-18T11:57:03.132Z,975.97
2023-03-18T11:58:03.250Z,975.91
2023-03-18T11:59:03.196Z,975.91
2023-03-18T12:00:03.140Z,975.91
2023-03-18T12:01:03.227Z,975.85
2023-03-18T12:02:03.274Z,975.93
2023-03-18T12:03:03.181Z,975.96
2023-03-18T12:04:03.206Z,975.98
2023-03-18T12:05:03.500Z,975.98
2023-03-18T12:06:03.061Z,975.96
2023-03-18T12:07:03.137Z,975.98
2023-03-18T12:08:03.128Z,975.98
2023-03-18T12:09:03.154Z,975.84
2023-03-18T12:10:03.050Z,975.92
2023-03-18T12:11:03.056Z,975.86
2023-03-18T12:12:02.994Z,976.04
2023-03-18T12:13:03.011Z,975.95
2023-03-18T12:14:03.098Z,976.03
2023-03-18T12:15:04.050Z,975.94
2023-03-18T12:16:03.225Z,975.94
2023-03-18T12:17:03.171Z,976.08
2023-03-18T12:18:03.120Z,975.94
2023-03-18T12:19:03.207Z,976.02
2023-03-18T12:20:03.235Z,976.11
2023-03-18T12:21:03.233Z,976.02
2023-03-18T12:22:03.129Z,975.99
2023-03-18T12:23:03.090Z,976.10
2023-03-18T12:24:03.054Z,976.01
2023-03-18T12:25:03.247Z,976.07
2023-03-18T12:26:03.216Z,976.16
2023-03-18T12:27:03.255Z,976.13
2023-03-18T12:28:03.201Z,976.01